sensor_id;sensor_type;location;lat;lon;timestamp;P1;durP1;ratioP1;P2;durP2;ratioP2
68375;SDS011;55318;52.068;5.188;2023-12-22T00:01:07;8.6;;;1.9;;
68375;SDS011;55318;52.068;5.188;2023-12-22T00:04:21;4.5;;;1.3;;
68375;SDS011;55318;52.068;5.188;2023-12-22T00:05:57;9.4;;;2.1;;
68375;SDS011;55318;52.068;5.188;2023-12-22T00:07:33;5.5;;;1.3;;
68375;SDS011;55318;52.068;5.188;2023-12-22T00:10:45;6.7;;;1.3;;
68375;SDS011;55318;52.068;5.188;2023-12-22T00:12:21;4.5;;;1.8;;
68375;SDS011;55318;52.068;5.188;2023-12-22T00:13:57;9.0;;;1.9;;
68375;SDS011;55318;52.068;5.188;2023-12-22T00:17:09;7.4;;;2.5;;
68375;SDS011;55318;52.068;5.188;2023-12-22T00:18:45;5.6;;;1.9;;
68375;SDS011;55318;52.068;5.188;2023-12-22T00:20:22;11.1;;;2.5;;
68375;SDS011;55318;52.068;5.188;2023-12-22T00:21:58;11.6;;;2.21;;
68375;SDS011;55318;52.068;5.188;2023-12-22T00:25:10;6.6;;;1.4;;
68375;SDS011;55318;52.068;5.188;2023-12-22T00:26:46;5.3;;;1.4;;
68375;SDS011;55318;52.068;5.188;2023-12-22T00:28:22;5.0;;;1.5;;
68375;SDS011;55318;52.068;5.188;2023-12-22T00:31:34;7.0;;;1.9;;
68375;SDS011;55318;52.068;5.188;2023-12-22T00:33:10;9.31;;;2.0;;
68375;SDS011;55318;52.068;5.188;2023-12-22T00:34:46;9.81;;;2.1;;
68375;SDS011;55318;52.068;5.188;2023-12-22T00:37:59;7.2;;;2.21;;
68375;SDS011;55318;52.068;5.188;2023-12-22T00:39:35;7.5;;;1.6;;
68375;SDS011;55318;52.068;5.188;2023-12-22T00:41:11;7.5;;;1.6;;
68375;SDS011;55318;52.068;5.188;2023-12-22T00:44:23;6.0;;;1.3;;
68375;SDS011;55318;52.068;5.188;2023-12-22T00:45:59;4.0;;;1.3;;
68375;SDS011;55318;52.068;5.188;2023-12-22T00:47:35;4.3;;;1.0;;
68375;SDS011;55318;52.068;5.188;2023-12-22T00:49:11;5.2;;;1.0;;
68375;SDS011;55318;52.068;5.188;2023-12-22T00:52:24;2.31;;;0.8;;
68375;SDS011;55318;52.068;5.188;2023-12-22T00:54:00;5.11;;;1.8;;
68375;SDS011;55318;52.068;5.188;2023-12-22T00:55:36;3.7;;;1.2;;
68375;SDS011;55318;52.068;5.188;2023-12-22T00:58:49;4.2;;;1.2;;
68375;SDS011;55318;52.068;5.188;2023-12-22T01:00:28;4.7;;;1.2;;
68375;SDS011;55318;52.068;5.188;2023-12-22T01:02:04;4.2;;;1.3;;
68375;SDS011;55318;52.068;5.188;2023-12-22T01:05:17;9.6;;;2.8;;
68375;SDS011;55318;52.068;5.188;2023-12-22T01:06:52;5.3;;;1.7;;
68375;SDS011;55318;52.068;5.188;2023-12-22T01:08:29;4.91;;;1.2;;
68375;SDS011;55318;52.068;5.188;2023-12-22T01:10:05;7.8;;;1.4;;
68375;SDS011;55318;52.068;5.188;2023-12-22T01:13:18;5.11;;;2.21;;
68375;SDS011;55318;52.068;5.188;2023-12-22T01:14:54;3.5;;;1.0;;
68375;SDS011;55318;52.068;5.188;2023-12-22T01:16:30;4.5;;;1.4;;
68375;SDS011;55318;52.068;5.188;2023-12-22T01:19:42;5.8;;;1.8;;
68375;SDS011;55318;52.068;5.188;2023-12-22T01:21:18;7.1;;;1.6;;
68375;SDS011;55318;52.068;5.188;2023-12-22T01:22:58;8.81;;;1.9;;
68375;SDS011;55318;52.068;5.188;2023-12-22T01:26:10;5.0;;;1.7;;
68375;SDS011;55318;52.068;5.188;2023-12-22T01:27:46;6.8;;;2.31;;
68375;SDS011;55318;52.068;5.188;2023-12-22T01:29:22;10.21;;;2.31;;
68375;SDS011;55318;52.068;5.188;2023-12-22T01:30:58;5.11;;;1.7;;
68375;SDS011;55318;52.068;5.188;2023-12-22T01:34:10;5.5;;;2.0;;
68375;SDS011;55318;52.068;5.188;2023-12-22T01:35:46;6.5;;;1.6;;
68375;SDS011;55318;52.068;5.188;2023-12-22T01:37:22;5.0;;;2.0;;
68375;SDS011;55318;52.068;5.188;2023-12-22T01:40:35;8.81;;;1.7;;
68375;SDS011;55318;52.068;5.188;2023-12-22T01:42:11;6.9;;;2.6;;
68375;SDS011;55318;52.068;5.188;2023-12-22T01:43:47;6.9;;;2.1;;
68375;SDS011;55318;52.068;5.188;2023-12-22T01:47:02;7.5;;;2.0;;
68375;SDS011;55318;52.068;5.188;2023-12-22T01:48:39;7.7;;;2.21;;
68375;SDS011;55318;52.068;5.188;2023-12-22T01:50:15;6.5;;;2.21;;
68375;SDS011;55318;52.068;5.188;2023-12-22T01:51:52;7.3;;;1.7;;
68375;SDS011;55318;52.068;5.188;2023-12-22T01:55:07;8.9;;;2.5;;
68375;SDS011;55318;52.068;5.188;2023-12-22T01:56:47;13.7;;;3.5;;
68375;SDS011;55318;52.068;5.188;2023-12-22T01:58:24;7.6;;;2.21;;
68375;SDS011;55318;52.068;5.188;2023-12-22T02:01:38;8.2;;;2.0;;
68375;SDS011;55318;52.068;5.188;2023-12-22T02:03:15;8.2;;;2.0;;
68375;SDS011;55318;52.068;5.188;2023-12-22T02:04:52;8.2;;;2.0;;
68375;SDS011;55318;52.068;5.188;2023-12-22T02:08:09;10.5;;;3.3;;
68375;SDS011;55318;52.068;5.188;2023-12-22T02:09:46;11.2;;;2.7;;
68375;SDS011;55318;52.068;5.188;2023-12-22T02:11:23;8.31;;;1.8;;
68375;SDS011;55318;52.068;5.188;2023-12-22T02:12:59;7.5;;;3.1;;
68375;SDS011;55318;52.068;5.188;2023-12-22T02:16:11;7.7;;;1.8;;
68375;SDS011;55318;52.068;5.188;2023-12-22T02:17:55;8.81;;;2.9;;
68375;SDS011;55318;52.068;5.188;2023-12-22T02:19:40;10.0;;;2.21;;
68375;SDS011;55318;52.068;5.188;2023-12-22T02:21:18;9.5;;;2.9;;
68375;SDS011;55318;52.068;5.188;2023-12-22T02:24:30;11.6;;;3.1;;
68375;SDS011;55318;52.068;5.188;2023-12-22T02:26:09;8.6;;;2.9;;
68375;SDS011;55318;52.068;5.188;2023-12-22T02:27:53;7.5;;;2.21;;
68375;SDS011;55318;52.068;5.188;2023-12-22T02:29:37;11.6;;;2.8;;
68375;SDS011;55318;52.068;5.188;2023-12-22T02:33:11;11.0;;;2.7;;
68375;SDS011;55318;52.068;5.188;2023-12-22T02:34:52;12.7;;;3.5;;
68375;SDS011;55318;52.068;5.188;2023-12-22T02:36:31;23.3;;;4.0;;
68375;SDS011;55318;52.068;5.188;2023-12-22T02:38:11;10.5;;;3.3;;
68375;SDS011;55318;52.068;5.188;2023-12-22T02:41:25;10.3;;;2.9;;
68375;SDS011;55318;52.068;5.188;2023-12-22T02:43:01;9.21;;;2.31;;
68375;SDS011;55318;52.068;5.188;2023-12-22T02:44:39;11.8;;;3.4;;
68375;SDS011;55318;52.068;5.188;2023-12-22T02:47:51;11.1;;;2.7;;
68375;SDS011;55318;52.068;5.188;2023-12-22T02:49:27;11.0;;;2.9;;
68375;SDS011;55318;52.068;5.188;2023-12-22T02:51:03;15.1;;;3.4;;
68375;SDS011;55318;52.068;5.188;2023-12-22T02:52:39;8.2;;;2.1;;
68375;SDS011;55318;52.068;5.188;2023-12-22T02:55:52;12.2;;;3.2;;
68375;SDS011;55318;52.068;5.188;2023-12-22T02:57:28;18.11;;;3.8;;
68375;SDS011;55318;52.068;5.188;2023-12-22T02:59:04;12.5;;;3.5;;
68375;SDS011;55318;52.068;5.188;2023-12-22T03:02:17;10.1;;;2.8;;
68375;SDS011;55318;52.068;5.188;2023-12-22T03:03:53;15.0;;;3.5;;
68375;SDS011;55318;52.068;5.188;2023-12-22T03:05:29;12.3;;;3.6;;
68375;SDS011;55318;52.068;5.188;2023-12-22T03:08:41;13.0;;;3.3;;
68375;SDS011;55318;52.068;5.188;2023-12-22T03:10:17;9.5;;;2.6;;
68375;SDS011;55318;52.068;5.188;2023-12-22T03:11:53;12.3;;;3.0;;
68375;SDS011;55318;52.068;5.188;2023-12-22T03:13:29;9.21;;;2.8;;
68375;SDS011;55318;52.068;5.188;2023-12-22T03:16:43;13.1;;;3.4;;
68375;SDS011;55318;52.068;5.188;2023-12-22T03:18:19;15.4;;;3.0;;
68375;SDS011;55318;52.068;5.188;2023-12-22T03:19:55;13.2;;;2.9;;
68375;SDS011;55318;52.068;5.188;2023-12-22T03:23:07;10.21;;;2.6;;
68375;SDS011;55318;52.068;5.188;2023-12-22T03:24:43;9.21;;;3.5;;
68375;SDS011;55318;52.068;5.188;2023-12-22T03:26:19;10.21;;;2.9;;
68375;SDS011;55318;52.068;5.188;2023-12-22T03:29:32;13.1;;;3.0;;
68375;SDS011;55318;52.068;5.188;2023-12-22T03:31:08;8.1;;;2.5;;
68375;SDS011;55318;52.068;5.188;2023-12-22T03:32:44;10.4;;;2.21;;
68375;SDS011;55318;52.068;5.188;2023-12-22T03:35:56;12.7;;;3.1;;
68375;SDS011;55318;52.068;5.188;2023-12-22T03:37:32;6.8;;;2.31;;
68375;SDS011;55318;52.068;5.188;2023-12-22T03:39:08;13.6;;;4.5;;
68375;SDS011;55318;52.068;5.188;2023-12-22T03:40:44;9.0;;;2.1;;
68375;SDS011;55318;52.068;5.188;2023-12-22T03:43:57;14.0;;;3.3;;
68375;SDS011;55318;52.068;5.188;2023-12-22T03:45:34;8.9;;;2.31;;
68375;SDS011;55318;52.068;5.188;2023-12-22T03:47:13;11.8;;;3.0;;
68375;SDS011;55318;52.068;5.188;2023-12-22T03:50:25;10.1;;;2.1;;
68375;SDS011;55318;52.068;5.188;2023-12-22T03:52:01;14.3;;;3.6;;
68375;SDS011;55318;52.068;5.188;2023-12-22T03:53:37;11.3;;;2.31;;
68375;SDS011;55318;52.068;5.188;2023-12-22T03:56:49;12.2;;;2.6;;
68375;SDS011;55318;52.068;5.188;2023-12-22T03:58:30;11.0;;;3.1;;
68375;SDS011;55318;52.068;5.188;2023-12-22T04:00:07;9.0;;;2.8;;
68375;SDS011;55318;52.068;5.188;2023-12-22T04:01:44;11.6;;;3.1;;
68375;SDS011;55318;52.068;5.188;2023-12-22T04:04:56;8.71;;;2.7;;
68375;SDS011;55318;52.068;5.188;2023-12-22T04:06:32;8.0;;;2.9;;
68375;SDS011;55318;52.068;5.188;2023-12-22T04:08:08;9.81;;;3.7;;
68375;SDS011;55318;52.068;5.188;2023-12-22T04:11:20;8.4;;;3.0;;
68375;SDS011;55318;52.068;5.188;2023-12-22T04:12:56;8.0;;;2.1;;
68375;SDS011;55318;52.068;5.188;2023-12-22T04:14:33;9.31;;;2.31;;
68375;SDS011;55318;52.068;5.188;2023-12-22T04:17:45;9.0;;;2.8;;
68375;SDS011;55318;52.068;5.188;2023-12-22T04:19:21;19.11;;;3.7;;
68375;SDS011;55318;52.068;5.188;2023-12-22T04:20:58;14.1;;;2.7;;
68375;SDS011;55318;52.068;5.188;2023-12-22T04:22:34;11.4;;;3.5;;
68375;SDS011;55318;52.068;5.188;2023-12-22T04:25:46;8.2;;;2.6;;
68375;SDS011;55318;52.068;5.188;2023-12-22T04:27:22;11.7;;;2.6;;
68375;SDS011;55318;52.068;5.188;2023-12-22T04:28:58;7.0;;;2.8;;
68375;SDS011;55318;52.068;5.188;2023-12-22T04:32:11;6.2;;;2.5;;
68375;SDS011;55318;52.068;5.188;2023-12-22T04:33:47;9.9;;;2.4;;
68375;SDS011;55318;52.068;5.188;2023-12-22T04:35:23;9.21;;;2.4;;
68375;SDS011;55318;52.068;5.188;2023-12-22T04:38:35;11.6;;;2.8;;
68375;SDS011;55318;52.068;5.188;2023-12-22T04:40:11;12.5;;;2.7;;
68375;SDS011;55318;52.068;5.188;2023-12-22T04:41:47;6.7;;;2.6;;
68375;SDS011;55318;52.068;5.188;2023-12-22T04:45:03;9.81;;;3.0;;
68375;SDS011;55318;52.068;5.188;2023-12-22T04:46:40;7.6;;;2.8;;
68375;SDS011;55318;52.068;5.188;2023-12-22T04:48:16;6.3;;;2.0;;
68375;SDS011;55318;52.068;5.188;2023-12-22T04:49:52;12.2;;;2.8;;
68375;SDS011;55318;52.068;5.188;2023-12-22T04:53:04;10.1;;;2.4;;
68375;SDS011;55318;52.068;5.188;2023-12-22T04:54:40;9.6;;;2.9;;
68375;SDS011;55318;52.068;5.188;2023-12-22T04:56:16;12.5;;;2.7;;
68375;SDS011;55318;52.068;5.188;2023-12-22T04:59:29;10.8;;;2.8;;
68375;SDS011;55318;52.068;5.188;2023-12-22T05:01:05;9.5;;;2.9;;
68375;SDS011;55318;52.068;5.188;2023-12-22T05:02:41;10.7;;;2.6;;
68375;SDS011;55318;52.068;5.188;2023-12-22T05:05:56;5.8;;;2.31;;
68375;SDS011;55318;52.068;5.188;2023-12-22T05:07:32;8.71;;;2.9;;
68375;SDS011;55318;52.068;5.188;2023-12-22T05:09:08;5.8;;;2.1;;
68375;SDS011;55318;52.068;5.188;2023-12-22T05:10:44;10.21;;;2.7;;
68375;SDS011;55318;52.068;5.188;2023-12-22T05:13:57;11.4;;;2.7;;
68375;SDS011;55318;52.068;5.188;2023-12-22T05:15:33;9.21;;;2.21;;
68375;SDS011;55318;52.068;5.188;2023-12-22T05:17:09;13.2;;;2.8;;
68375;SDS011;55318;52.068;5.188;2023-12-22T05:20:22;5.7;;;2.4;;
68375;SDS011;55318;52.068;5.188;2023-12-22T05:21:58;8.2;;;2.7;;
68375;SDS011;55318;52.068;5.188;2023-12-22T05:23:34;13.1;;;3.4;;
68375;SDS011;55318;52.068;5.188;2023-12-22T05:26:49;10.7;;;2.6;;
68375;SDS011;55318;52.068;5.188;2023-12-22T05:28:25;11.3;;;3.5;;
68375;SDS011;55318;52.068;5.188;2023-12-22T05:30:01;9.1;;;2.31;;
68375;SDS011;55318;52.068;5.188;2023-12-22T05:31:38;7.9;;;2.7;;
68375;SDS011;55318;52.068;5.188;2023-12-22T05:34:50;6.7;;;2.1;;
68375;SDS011;55318;52.068;5.188;2023-12-22T05:36:26;5.7;;;2.0;;
68375;SDS011;55318;52.068;5.188;2023-12-22T05:38:03;9.4;;;2.21;;
68375;SDS011;55318;52.068;5.188;2023-12-22T05:41:15;6.7;;;2.4;;
68375;SDS011;55318;52.068;5.188;2023-12-22T05:42:51;8.81;;;2.0;;
68375;SDS011;55318;52.068;5.188;2023-12-22T05:44:27;5.3;;;2.0;;
68375;SDS011;55318;52.068;5.188;2023-12-22T05:47:39;6.9;;;2.6;;
68375;SDS011;55318;52.068;5.188;2023-12-22T05:49:15;5.7;;;2.0;;
68375;SDS011;55318;52.068;5.188;2023-12-22T05:50:51;9.21;;;3.5;;
68375;SDS011;55318;52.068;5.188;2023-12-22T05:52:27;9.31;;;2.0;;
68375;SDS011;55318;52.068;5.188;2023-12-22T05:55:41;13.0;;;3.9;;
68375;SDS011;55318;52.068;5.188;2023-12-22T05:57:17;5.5;;;1.7;;
68375;SDS011;55318;52.068;5.188;2023-12-22T05:58:53;6.9;;;1.8;;
68375;SDS011;55318;52.068;5.188;2023-12-22T06:02:05;6.3;;;2.6;;
68375;SDS011;55318;52.068;5.188;2023-12-22T06:03:41;5.3;;;2.21;;
68375;SDS011;55318;52.068;5.188;2023-12-22T06:05:17;8.31;;;2.5;;
68375;SDS011;55318;52.068;5.188;2023-12-22T06:08:30;9.81;;;1.9;;
68375;SDS011;55318;52.068;5.188;2023-12-22T06:10:06;9.1;;;2.8;;
68375;SDS011;55318;52.068;5.188;2023-12-22T06:11:43;9.6;;;2.9;;
68375;SDS011;55318;52.068;5.188;2023-12-22T06:14:58;10.21;;;2.0;;
68375;SDS011;55318;52.068;5.188;2023-12-22T06:16:34;6.7;;;2.4;;
68375;SDS011;55318;52.068;5.188;2023-12-22T06:18:10;6.7;;;2.31;;
68375;SDS011;55318;52.068;5.188;2023-12-22T06:19:46;11.3;;;2.8;;
68375;SDS011;55318;52.068;5.188;2023-12-22T06:22:59;8.1;;;2.31;;
68375;SDS011;55318;52.068;5.188;2023-12-22T06:24:35;11.8;;;2.9;;
68375;SDS011;55318;52.068;5.188;2023-12-22T06:26:11;7.7;;;2.31;;
68375;SDS011;55318;52.068;5.188;2023-12-22T06:29:23;7.3;;;2.8;;
68375;SDS011;55318;52.068;5.188;2023-12-22T06:30:59;11.8;;;3.4;;
68375;SDS011;55318;52.068;5.188;2023-12-22T06:32:35;7.8;;;2.21;;
68375;SDS011;55318;52.068;5.188;2023-12-22T06:35:48;11.1;;;3.2;;
68375;SDS011;55318;52.068;5.188;2023-12-22T06:37:24;9.81;;;2.4;;
68375;SDS011;55318;52.068;5.188;2023-12-22T06:39:00;11.0;;;3.0;;
68375;SDS011;55318;52.068;5.188;2023-12-22T06:40:36;8.71;;;2.5;;
68375;SDS011;55318;52.068;5.188;2023-12-22T06:43:49;10.4;;;3.3;;
68375;SDS011;55318;52.068;5.188;2023-12-22T06:45:25;12.3;;;3.2;;
68375;SDS011;55318;52.068;5.188;2023-12-22T06:47:01;9.6;;;3.5;;
68375;SDS011;55318;52.068;5.188;2023-12-22T06:50:14;15.0;;;3.7;;
68375;SDS011;55318;52.068;5.188;2023-12-22T06:51:50;11.9;;;2.8;;
68375;SDS011;55318;52.068;5.188;2023-12-22T06:53:26;14.6;;;3.7;;
68375;SDS011;55318;52.068;5.188;2023-12-22T06:56:38;8.31;;;3.0;;
68375;SDS011;55318;52.068;5.188;2023-12-22T06:58:14;8.0;;;2.4;;
68375;SDS011;55318;52.068;5.188;2023-12-22T06:59:50;18.3;;;3.8;;
68375;SDS011;55318;52.068;5.188;2023-12-22T07:03:05;16.4;;;3.7;;
68375;SDS011;55318;52.068;5.188;2023-12-22T07:05:01;18.3;;;3.7;;
68375;SDS011;55318;52.068;5.188;2023-12-22T07:07:17;14.6;;;4.5;;
68375;SDS011;55318;52.068;5.188;2023-12-22T07:09:30;14.4;;;3.7;;
68375;SDS011;55318;52.068;5.188;2023-12-22T07:11:06;10.21;;;3.3;;
68375;SDS011;55318;52.068;5.188;2023-12-22T07:12:42;18.91;;;4.41;;
68375;SDS011;55318;52.068;5.188;2023-12-22T07:14:18;18.91;;;5.9;;
68375;SDS011;55318;52.068;5.188;2023-12-22T07:17:30;13.9;;;4.8;;
68375;SDS011;55318;52.068;5.188;2023-12-22T07:19:10;19.11;;;3.8;;
68375;SDS011;55318;52.068;5.188;2023-12-22T07:20:47;13.5;;;4.7;;
68375;SDS011;55318;52.068;5.188;2023-12-22T07:23:59;11.6;;;3.8;;
68375;SDS011;55318;52.068;5.188;2023-12-22T07:25:36;16.9;;;5.5;;
68375;SDS011;55318;52.068;5.188;2023-12-22T07:27:12;18.2;;;4.41;;
68375;SDS011;55318;52.068;5.188;2023-12-22T07:28:48;17.2;;;4.3;;
68375;SDS011;55318;52.068;5.188;2023-12-22T07:32:01;15.4;;;4.41;;
68375;SDS011;55318;52.068;5.188;2023-12-22T07:33:37;13.3;;;3.6;;
68375;SDS011;55318;52.068;5.188;2023-12-22T07:35:13;13.2;;;4.61;;
68375;SDS011;55318;52.068;5.188;2023-12-22T07:38:25;25.6;;;6.1;;
68375;SDS011;55318;52.068;5.188;2023-12-22T07:40:01;18.11;;;3.7;;
68375;SDS011;55318;52.068;5.188;2023-12-22T07:41:40;13.4;;;4.3;;
68375;SDS011;55318;52.068;5.188;2023-12-22T07:44:52;17.5;;;5.11;;
68375;SDS011;55318;52.068;5.188;2023-12-22T07:46:29;24.0;;;6.4;;
68375;SDS011;55318;52.068;5.188;2023-12-22T07:48:05;17.2;;;5.0;;
68375;SDS011;55318;52.068;5.188;2023-12-22T07:49:41;14.5;;;3.8;;
68375;SDS011;55318;52.068;5.188;2023-12-22T07:52:53;18.3;;;5.8;;
68375;SDS011;55318;52.068;5.188;2023-12-22T07:54:29;17.61;;;5.3;;
68375;SDS011;55318;52.068;5.188;2023-12-22T07:56:06;16.5;;;4.7;;
68375;SDS011;55318;52.068;5.188;2023-12-22T07:59:18;17.41;;;4.8;;
68375;SDS011;55318;52.068;5.188;2023-12-22T08:00:54;20.3;;;4.91;;
68375;SDS011;55318;52.068;5.188;2023-12-22T08:02:30;19.61;;;4.1;;
68375;SDS011;55318;52.068;5.188;2023-12-22T08:05:41;14.6;;;3.4;;
68375;SDS011;55318;52.068;5.188;2023-12-22T08:07:17;14.0;;;4.1;;
68375;SDS011;55318;52.068;5.188;2023-12-22T08:08:53;16.61;;;4.3;;
68375;SDS011;55318;52.068;5.188;2023-12-22T08:12:06;12.2;;;3.5;;
68375;SDS011;55318;52.068;5.188;2023-12-22T08:13:43;18.0;;;4.5;;
68375;SDS011;55318;52.068;5.188;2023-12-22T08:15:22;14.8;;;4.0;;
68375;SDS011;55318;52.068;5.188;2023-12-22T08:16:58;13.0;;;3.7;;
68375;SDS011;55318;52.068;5.188;2023-12-22T08:20:10;12.6;;;3.0;;
68375;SDS011;55318;52.068;5.188;2023-12-22T08:21:46;16.11;;;3.4;;
68375;SDS011;55318;52.068;5.188;2023-12-22T08:23:22;11.1;;;3.4;;
68375;SDS011;55318;52.068;5.188;2023-12-22T08:26:38;13.7;;;3.1;;
68375;SDS011;55318;52.068;5.188;2023-12-22T08:28:14;14.0;;;3.8;;
68375;SDS011;55318;52.068;5.188;2023-12-22T08:29:49;12.8;;;3.7;;
68375;SDS011;55318;52.068;5.188;2023-12-22T08:33:01;10.7;;;3.6;;
68375;SDS011;55318;52.068;5.188;2023-12-22T08:34:38;8.6;;;2.31;;
68375;SDS011;55318;52.068;5.188;2023-12-22T08:36:14;9.9;;;3.4;;
68375;SDS011;55318;52.068;5.188;2023-12-22T08:37:50;9.6;;;2.6;;
68375;SDS011;55318;52.068;5.188;2023-12-22T08:41:03;10.21;;;3.1;;
68375;SDS011;55318;52.068;5.188;2023-12-22T08:42:39;8.71;;;2.7;;
68375;SDS011;55318;52.068;5.188;2023-12-22T08:44:15;11.1;;;2.8;;
68375;SDS011;55318;52.068;5.188;2023-12-22T08:47:27;14.7;;;2.6;;
68375;SDS011;55318;52.068;5.188;2023-12-22T08:49:03;13.4;;;3.7;;
68375;SDS011;55318;52.068;5.188;2023-12-22T08:50:39;11.4;;;2.6;;
68375;SDS011;55318;52.068;5.188;2023-12-22T08:53:52;8.9;;;2.7;;
68375;SDS011;55318;52.068;5.188;2023-12-22T08:55:29;9.71;;;3.8;;
68375;SDS011;55318;52.068;5.188;2023-12-22T08:57:05;10.0;;;2.8;;
68375;SDS011;55318;52.068;5.188;2023-12-22T08:58:41;9.4;;;2.5;;
68375;SDS011;55318;52.068;5.188;2023-12-22T09:01:53;7.5;;;2.7;;
68375;SDS011;55318;52.068;5.188;2023-12-22T09:03:31;6.1;;;2.1;;
68375;SDS011;55318;52.068;5.188;2023-12-22T09:05:09;8.4;;;3.2;;
68375;SDS011;55318;52.068;5.188;2023-12-22T09:08:22;10.6;;;3.4;;
68375;SDS011;55318;52.068;5.188;2023-12-22T09:09:58;6.1;;;2.31;;
68375;SDS011;55318;52.068;5.188;2023-12-22T09:11:38;8.2;;;2.6;;
68375;SDS011;55318;52.068;5.188;2023-12-22T09:14:50;6.9;;;2.4;;
68375;SDS011;55318;52.068;5.188;2023-12-22T09:16:27;7.8;;;2.1;;
68375;SDS011;55318;52.068;5.188;2023-12-22T09:18:03;7.5;;;2.6;;
68375;SDS011;55318;52.068;5.188;2023-12-22T09:19:40;7.3;;;2.31;;
68375;SDS011;55318;52.068;5.188;2023-12-22T09:22:53;7.9;;;1.8;;
68375;SDS011;55318;52.068;5.188;2023-12-22T09:24:29;6.0;;;1.9;;
68375;SDS011;55318;52.068;5.188;2023-12-22T09:26:05;7.6;;;1.7;;
68375;SDS011;55318;52.068;5.188;2023-12-22T09:29:17;7.5;;;2.1;;
68375;SDS011;55318;52.068;5.188;2023-12-22T09:30:53;5.4;;;1.8;;
68375;SDS011;55318;52.068;5.188;2023-12-22T09:32:30;5.4;;;2.1;;
68375;SDS011;55318;52.068;5.188;2023-12-22T09:35:43;5.4;;;1.7;;
68375;SDS011;55318;52.068;5.188;2023-12-22T09:37:19;6.0;;;1.7;;
68375;SDS011;55318;52.068;5.188;2023-12-22T09:38:55;5.3;;;1.8;;
68375;SDS011;55318;52.068;5.188;2023-12-22T09:40:31;7.9;;;2.0;;
68375;SDS011;55318;52.068;5.188;2023-12-22T09:43:43;9.31;;;2.0;;
68375;SDS011;55318;52.068;5.188;2023-12-22T09:45:25;12.5;;;2.21;;
68375;SDS011;55318;52.068;5.188;2023-12-22T09:47:02;4.5;;;1.9;;
68375;SDS011;55318;52.068;5.188;2023-12-22T09:50:18;5.6;;;2.1;;
68375;SDS011;55318;52.068;5.188;2023-12-22T09:51:56;7.2;;;1.8;;
68375;SDS011;55318;52.068;5.188;2023-12-22T09:53:33;6.1;;;1.8;;
68375;SDS011;55318;52.068;5.188;2023-12-22T09:55:11;4.91;;;1.3;;
68375;SDS011;55318;52.068;5.188;2023-12-22T09:58:29;4.61;;;2.0;;
68375;SDS011;55318;52.068;5.188;2023-12-22T10:00:08;3.8;;;1.11;;
68375;SDS011;55318;52.068;5.188;2023-12-22T10:01:45;3.4;;;1.3;;
68375;SDS011;55318;52.068;5.188;2023-12-22T10:05:01;3.7;;;1.3;;
68375;SDS011;55318;52.068;5.188;2023-12-22T10:06:38;4.7;;;1.3;;
68375;SDS011;55318;52.068;5.188;2023-12-22T10:08:15;6.5;;;1.3;;
68375;SDS011;55318;52.068;5.188;2023-12-22T10:09:54;5.5;;;1.7;;
68375;SDS011;55318;52.068;5.188;2023-12-22T10:13:09;2.8;;;1.0;;
68375;SDS011;55318;52.068;5.188;2023-12-22T10:14:46;3.5;;;0.9;;
68375;SDS011;55318;52.068;5.188;2023-12-22T10:16:23;13.1;;;2.31;;
68375;SDS011;55318;52.068;5.188;2023-12-22T10:19:35;7.0;;;2.0;;
68375;SDS011;55318;52.068;5.188;2023-12-22T10:21:11;5.4;;;1.5;;
68375;SDS011;55318;52.068;5.188;2023-12-22T10:22:47;6.1;;;1.6;;
68375;SDS011;55318;52.068;5.188;2023-12-22T10:26:20;5.11;;;1.3;;
68375;SDS011;55318;52.068;5.188;2023-12-22T10:27:56;5.9;;;1.6;;
68375;SDS011;55318;52.068;5.188;2023-12-22T10:29:33;5.5;;;1.5;;
68375;SDS011;55318;52.068;5.188;2023-12-22T10:34:22;4.61;;;1.11;;
68375;SDS011;55318;52.068;5.188;2023-12-22T10:35:58;2.5;;;0.8;;
68375;SDS011;55318;52.068;5.188;2023-12-22T10:37:35;3.3;;;1.4;;
68375;SDS011;55318;52.068;5.188;2023-12-22T10:39:11;3.8;;;1.3;;
68375;SDS011;55318;52.068;5.188;2023-12-22T10:42:24;5.11;;;1.5;;
68375;SDS011;55318;52.068;5.188;2023-12-22T10:44:02;3.0;;;1.3;;
68375;SDS011;55318;52.068;5.188;2023-12-22T10:45:39;4.2;;;1.11;;
68375;SDS011;55318;52.068;5.188;2023-12-22T10:48:53;3.7;;;1.3;;
68375;SDS011;55318;52.068;5.188;2023-12-22T10:50:29;5.9;;;2.31;;
68375;SDS011;55318;52.068;5.188;2023-12-22T10:52:05;8.1;;;1.5;;
68375;SDS011;55318;52.068;5.188;2023-12-22T10:55:18;5.5;;;1.5;;
68375;SDS011;55318;52.068;5.188;2023-12-22T10:56:57;2.8;;;1.11;;
68375;SDS011;55318;52.068;5.188;2023-12-22T10:58:34;3.7;;;1.3;;
68375;SDS011;55318;52.068;5.188;2023-12-22T11:00:12;3.6;;;1.8;;
68375;SDS011;55318;52.068;5.188;2023-12-22T11:03:27;3.6;;;1.4;;
68375;SDS011;55318;52.068;5.188;2023-12-22T11:05:13;3.5;;;1.0;;
68375;SDS011;55318;52.068;5.188;2023-12-22T11:06:51;4.61;;;1.6;;
68375;SDS011;55318;52.068;5.188;2023-12-22T11:08:33;8.71;;;2.31;;
68375;SDS011;55318;52.068;5.188;2023-12-22T11:11:49;6.9;;;1.7;;
68375;SDS011;55318;52.068;5.188;2023-12-22T11:13:27;5.5;;;1.9;;
68375;SDS011;55318;52.068;5.188;2023-12-22T11:15:05;4.5;;;1.3;;
68375;SDS011;55318;52.068;5.188;2023-12-22T11:18:19;5.5;;;1.9;;
68375;SDS011;55318;52.068;5.188;2023-12-22T11:19:57;3.7;;;1.4;;
68375;SDS011;55318;52.068;5.188;2023-12-22T11:21:34;6.7;;;1.7;;
68375;SDS011;55318;52.068;5.188;2023-12-22T11:23:12;6.4;;;2.0;;
68375;SDS011;55318;52.068;5.188;2023-12-22T11:26:30;4.61;;;1.8;;
68375;SDS011;55318;52.068;5.188;2023-12-22T11:28:08;4.61;;;1.3;;
68375;SDS011;55318;52.068;5.188;2023-12-22T11:29:48;3.3;;;1.11;;
68375;SDS011;55318;52.068;5.188;2023-12-22T11:31:25;5.4;;;1.3;;
68375;SDS011;55318;52.068;5.188;2023-12-22T11:34:40;3.7;;;1.6;;
68375;SDS011;55318;52.068;5.188;2023-12-22T11:36:19;4.3;;;1.0;;
68375;SDS011;55318;52.068;5.188;2023-12-22T11:37:55;7.3;;;2.4;;
68375;SDS011;55318;52.068;5.188;2023-12-22T11:41:12;9.9;;;1.5;;
68375;SDS011;55318;52.068;5.188;2023-12-22T11:42:53;6.0;;;1.4;;
68375;SDS011;55318;52.068;5.188;2023-12-22T11:44:30;6.0;;;1.6;;
68375;SDS011;55318;52.068;5.188;2023-12-22T11:46:06;6.4;;;1.3;;
68375;SDS011;55318;52.068;5.188;2023-12-22T11:49:28;3.1;;;1.7;;
68375;SDS011;55318;52.068;5.188;2023-12-22T11:51:12;5.5;;;2.21;;
68375;SDS011;55318;52.068;5.188;2023-12-22T11:52:49;5.8;;;1.8;;
68375;SDS011;55318;52.068;5.188;2023-12-22T11:54:45;4.41;;;1.4;;
68375;SDS011;55318;52.068;5.188;2023-12-22T11:58:02;7.4;;;2.1;;
68375;SDS011;55318;52.068;5.188;2023-12-22T12:00:09;4.41;;;1.11;;
68375;SDS011;55318;52.068;5.188;2023-12-22T12:02:14;5.9;;;2.1;;
68375;SDS011;55318;52.068;5.188;2023-12-22T12:03:51;5.7;;;2.1;;
68375;SDS011;55318;52.068;5.188;2023-12-22T12:05:29;3.2;;;1.2;;
68375;SDS011;55318;52.068;5.188;2023-12-22T12:07:36;3.7;;;1.11;;
68375;SDS011;55318;52.068;5.188;2023-12-22T12:09:13;4.41;;;1.11;;
68375;SDS011;55318;52.068;5.188;2023-12-22T12:12:28;5.8;;;1.7;;
68375;SDS011;55318;52.068;5.188;2023-12-22T12:14:07;4.91;;;1.9;;
68375;SDS011;55318;52.068;5.188;2023-12-22T12:15:47;5.5;;;1.2;;
68375;SDS011;55318;52.068;5.188;2023-12-22T12:17:26;7.1;;;2.21;;
68375;SDS011;55318;52.068;5.188;2023-12-22T12:20:38;7.5;;;1.4;;
68375;SDS011;55318;52.068;5.188;2023-12-22T12:22:14;2.7;;;1.3;;
68375;SDS011;55318;52.068;5.188;2023-12-22T12:23:50;5.0;;;1.8;;
68375;SDS011;55318;52.068;5.188;2023-12-22T12:27:05;5.11;;;1.2;;
68375;SDS011;55318;52.068;5.188;2023-12-22T12:28:44;6.8;;;2.0;;
68375;SDS011;55318;52.068;5.188;2023-12-22T12:30:21;7.3;;;1.6;;
68375;SDS011;55318;52.068;5.188;2023-12-22T12:33:39;13.3;;;2.0;;
68375;SDS011;55318;52.068;5.188;2023-12-22T12:35:16;5.11;;;1.2;;
68375;SDS011;55318;52.068;5.188;2023-12-22T12:36:54;4.1;;;1.8;;
68375;SDS011;55318;52.068;5.188;2023-12-22T12:38:36;8.2;;;2.1;;
68375;SDS011;55318;52.068;5.188;2023-12-22T12:41:59;3.3;;;1.11;;
68375;SDS011;55318;52.068;5.188;2023-12-22T12:43:36;6.7;;;1.5;;
68375;SDS011;55318;52.068;5.188;2023-12-22T12:45:19;10.4;;;2.1;;
68375;SDS011;55318;52.068;5.188;2023-12-22T12:47:09;3.6;;;1.11;;
68375;SDS011;55318;52.068;5.188;2023-12-22T12:48:47;3.1;;;1.4;;
68375;SDS011;55318;52.068;5.188;2023-12-22T12:52:00;3.8;;;1.4;;
68375;SDS011;55318;52.068;5.188;2023-12-22T12:53:36;7.0;;;1.7;;